createdAt,value
2019-03-22T00:00:32.894Z,22.07
2019-03-22T00:03:01.281Z,20.77
2019-03-22T00:05:29.621Z,19.80
2019-03-22T00:07:57.990Z,20.23
2019-03-22T00:10:26.327Z,19.67
2019-03-22T00:12:54.553Z,24.13
2019-03-22T00:15:22.812Z,21.93
2019-03-22T00:17:51.109Z,21.33
2019-03-22T00:20:19.372Z,19.40
2019-03-22T00:22:47.673Z,21.87
2019-03-22T00:25:15.938Z,24.57
2019-03-22T00:27:44.168Z,20.00
2019-03-22T00:30:12.515Z,22.87
2019-03-22T00:32:40.741Z,20.40
2019-03-22T00:35:09.073Z,21.50
2019-03-22T00:37:37.373Z,26.07
2019-03-22T00:40:05.774Z,26.13
2019-03-22T00:42:34.110Z,19.53
2019-03-22T00:45:02.421Z,23.10
2019-03-22T00:47:30.685Z,25.93
2019-03-22T00:49:58.921Z,24.30
2019-03-22T00:52:27.267Z,21.07
2019-03-22T00:54:55.493Z,22.43
2019-03-22T00:57:28.430Z,21.00
2019-03-22T00:59:53.642Z,22.47
2019-03-22T01:02:21.901Z,23.10
2019-03-22T01:04:50.125Z,23.30
2019-03-22T01:07:18.454Z,22.23
2019-03-22T01:09:46.694Z,26.53
2019-03-22T01:12:14.983Z,22.50
2019-03-22T01:14:43.261Z,22.00
2019-03-22T01:17:11.516Z,20.70
2019-03-22T01:19:39.821Z,22.77
2019-03-22T01:22:08.085Z,28.13
2019-03-22T01:24:36.322Z,20.97
2019-03-22T01:27:04.661Z,23.43
2019-03-22T01:29:32.892Z,23.73
2019-03-22T01:32:01.194Z,22.47
2019-03-22T01:34:29.520Z,24.87
2019-03-22T01:36:57.767Z,26.90
2019-03-22T01:39:26.026Z,20.97
2019-03-22T01:41:54.315Z,22.83
2019-03-22T01:44:22.658Z,27.87
2019-03-22T01:46:50.966Z,23.87
2019-03-22T01:49:19.225Z,25.83
2019-03-22T01:51:47.453Z,21.33
2019-03-22T01:54:15.781Z,21.80
2019-03-22T01:56:45.642Z,23.23
2019-03-22T01:59:13.898Z,24.80
2019-03-22T02:01:42.204Z,26.37
2019-03-22T02:04:10.461Z,26.00
2019-03-22T02:06:38.692Z,20.40
2019-03-22T02:09:07.693Z,28.13
2019-03-22T02:11:35.917Z,23.10
2019-03-22T02:14:04.252Z,21.80
2019-03-22T02:16:32.475Z,25.00
2019-03-22T02:19:00.749Z,24.60
2019-03-22T02:21:29.037Z,26.20
2019-03-22T02:24:00.830Z,25.47
2019-03-22T02:26:31.515Z,26.97
2019-03-22T02:28:59.843Z,25.67
2019-03-22T02:31:28.142Z,27.83
2019-03-22T02:33:56.415Z,22.77
2019-03-22T02:36:24.630Z,24.63
2019-03-22T02:38:52.896Z,24.27
2019-03-22T02:41:21.119Z,24.50
2019-03-22T02:43:49.386Z,27.17
2019-03-22T02:46:17.674Z,25.87
2019-03-22T02:48:46.006Z,22.90
2019-03-22T02:51:14.297Z,23.17
2019-03-22T02:53:42.534Z,25.87
2019-03-22T02:56:10.970Z,23.83
2019-03-22T02:58:39.300Z,24.83
2019-03-22T03:01:07.568Z,22.10
2019-03-22T03:03:35.870Z,23.20
2019-03-22T03:06:04.217Z,25.03
2019-03-22T03:08:32.509Z,27.03
2019-03-22T03:11:00.842Z,24.13
2019-03-22T03:13:29.078Z,29.27
2019-03-22T03:15:57.338Z,24.57
2019-03-22T03:18:25.573Z,23.57
2019-03-22T03:20:53.842Z,28.93
2019-03-22T03:23:22.169Z,23.57
2019-03-22T03:25:50.375Z,27.60
2019-03-22T03:28:18.638Z,28.77
2019-03-22T03:30:46.882Z,27.40
2019-03-22T03:33:15.133Z,26.53
2019-03-22T03:35:43.366Z,25.53
2019-03-22T03:38:11.621Z,28.67
2019-03-22T03:40:39.921Z,23.67
2019-03-22T03:43:08.158Z,26.03
2019-03-22T03:45:36.916Z,26.70
2019-03-22T03:48:06.485Z,25.07
2019-03-22T03:50:34.829Z,28.10
2019-03-22T03:53:03.110Z,26.47
2019-03-22T03:55:31.376Z,25.40
2019-03-22T03:57:59.614Z,30.70
2019-03-22T04:00:28.045Z,28.07
2019-03-22T04:02:58.775Z,22.37
2019-03-22T04:05:27.093Z,32.50
2019-03-22T04:07:55.402Z,28.83
2019-03-22T04:10:23.736Z,28.93
2019-03-22T04:12:52.022Z,23.83
2019-03-22T04:15:20.437Z,23.03
2019-03-22T04:17:48.678Z,28.63
2019-03-22T04:20:16.944Z,25.50
2019-03-22T04:22:45.243Z,28.27
2019-03-22T04:25:13.505Z,25.07
2019-03-22T04:27:41.750Z,23.77
2019-03-22T04:30:10.093Z,24.20
2019-03-22T04:32:38.333Z,27.40
2019-03-22T04:35:06.720Z,25.93
2019-03-22T04:37:35.060Z,23.53
2019-03-22T04:40:04.828Z,24.73
2019-03-22T04:42:33.163Z,27.13
2019-03-22T04:45:01.461Z,30.13
2019-03-22T04:47:29.801Z,39.30
2019-03-22T04:49:58.399Z,35.63
2019-03-22T04:52:27.142Z,35.17
2019-03-22T04:54:57.129Z,29.70
2019-03-22T04:57:26.056Z,24.70
2019-03-22T04:59:54.664Z,30.43
2019-03-22T05:02:23.705Z,24.67
2019-03-22T05:04:52.103Z,25.27
2019-03-22T05:07:20.730Z,36.20
2019-03-22T05:09:49.729Z,29.97
2019-03-22T05:12:19.529Z,30.07
2019-03-22T05:14:47.837Z,29.63
2019-03-22T05:17:16.470Z,27.67
2019-03-22T05:19:46.244Z,27.63
2019-03-22T05:22:16.393Z,24.37
2019-03-22T05:24:46.393Z,25.17
2019-03-22T05:27:15.429Z,32.67
2019-03-22T05:29:45.425Z,29.43
2019-03-22T05:32:14.356Z,29.13
2019-03-22T05:34:42.658Z,22.87
2019-03-22T05:37:10.993Z,24.93
2019-03-22T05:39:39.289Z,30.40
2019-03-22T05:42:07.591Z,29.47
2019-03-22T05:44:35.938Z,25.10
2019-03-22T05:47:04.441Z,32.23
2019-03-22T05:49:32.791Z,25.27
2019-03-22T05:52:01.087Z,25.50
2019-03-22T05:54:29.353Z,22.77
2019-03-22T05:56:57.654Z,28.70
2019-03-22T05:59:25.917Z,29.90
2019-03-22T06:01:54.217Z,22.37
2019-03-22T06:04:22.484Z,25.67
2019-03-22T06:06:50.938Z,25.50
2019-03-22T06:09:19.289Z,25.43
2019-03-22T06:11:47.619Z,27.10
2019-03-22T06:14:17.845Z,22.83
2019-03-22T06:16:45.830Z,25.90
2019-03-22T06:19:14.061Z,21.37
2019-03-22T06:21:42.334Z,21.90
2019-03-22T06:24:10.625Z,21.60
2019-03-22T06:26:38.882Z,23.20
2019-03-22T06:29:07.182Z,18.23
2019-03-22T06:31:35.442Z,27.43
2019-03-22T06:34:03.786Z,22.40
2019-03-22T06:36:32.109Z,19.20
2019-03-22T06:39:00.404Z,15.97
2019-03-22T06:41:28.657Z,16.77
2019-03-22T06:43:56.889Z,16.43
2019-03-22T06:46:25.302Z,14.73
2019-03-22T06:48:53.708Z,15.40
2019-03-22T06:51:21.929Z,14.27
2019-03-22T06:53:50.197Z,15.50
2019-03-22T06:56:18.418Z,14.60
2019-03-22T06:58:46.748Z,14.07
2019-03-22T07:01:14.981Z,14.03
2019-03-22T07:03:43.233Z,14.70
2019-03-22T07:06:11.457Z,19.57
2019-03-22T07:08:39.722Z,22.83
2019-03-22T07:11:08.018Z,15.17
2019-03-22T07:13:36.274Z,12.50
2019-03-22T07:16:04.566Z,15.00
2019-03-22T07:18:32.826Z,14.53
2019-03-22T07:21:01.053Z,24.47
2019-03-22T07:23:29.320Z,20.10
2019-03-22T07:25:57.558Z,38.90
2019-03-22T07:28:25.786Z,20.27
2019-03-22T07:30:54.040Z,32.10
2019-03-22T07:33:22.265Z,22.03
2019-03-22T07:35:50.525Z,25.23
2019-03-22T07:38:18.822Z,32.40
2019-03-22T07:40:47.082Z,27.20
2019-03-22T07:43:16.650Z,25.50
2019-03-22T07:45:44.909Z,19.70
2019-03-22T07:48:13.142Z,20.27
2019-03-22T07:50:41.460Z,14.63
2019-03-22T07:53:09.701Z,21.00
2019-03-22T07:55:38.075Z,17.43
2019-03-22T07:58:06.391Z,15.77
2019-03-22T08:00:34.693Z,13.13
2019-03-22T08:03:03.016Z,17.27
2019-03-22T08:05:31.318Z,15.97
2019-03-22T08:07:59.582Z,16.07
2019-03-22T08:10:27.888Z,16.87
2019-03-22T08:12:56.155Z,15.50
2019-03-22T08:15:28.249Z,16.00
2019-03-22T08:17:57.268Z,13.00
2019-03-22T08:20:25.749Z,15.50
2019-03-22T08:22:54.076Z,15.73
2019-03-22T08:25:22.368Z,17.23
2019-03-22T08:27:50.626Z,14.87
2019-03-22T08:30:18.926Z,13.57
2019-03-22T08:32:47.226Z,18.40
2019-03-22T08:35:15.409Z,14.77
2019-03-22T08:37:52.433Z,13.73
2019-03-22T08:40:13.715Z,16.50
2019-03-22T08:42:42.006Z,16.83
2019-03-22T08:45:11.484Z,16.93
2019-03-22T08:47:40.048Z,19.70
2019-03-22T08:50:08.331Z,17.87
2019-03-22T08:52:36.580Z,18.47
2019-03-22T08:55:05.392Z,18.23
2019-03-22T08:57:33.628Z,25.10
2019-03-22T09:00:01.871Z,18.30
2019-03-22T09:02:30.100Z,19.43
2019-03-22T09:04:58.421Z,16.80
2019-03-22T09:07:26.731Z,18.40
2019-03-22T09:09:55.031Z,18.77
2019-03-22T09:12:23.276Z,21.10
2019-03-22T09:14:51.538Z,20.37
2019-03-22T09:17:19.952Z,21.80
2019-03-22T09:19:51.085Z,20.73
2019-03-22T09:22:18.154Z,27.50
2019-03-22T09:24:46.414Z,22.90
2019-03-22T09:27:14.641Z,24.10
2019-03-22T09:29:42.887Z,22.10
2019-03-22T09:32:11.123Z,23.63
2019-03-22T09:34:39.390Z,23.67
2019-03-22T09:37:08.991Z,19.13
2019-03-22T09:39:37.573Z,22.97
2019-03-22T09:42:05.823Z,25.23
2019-03-22T09:44:43.392Z,21.87
2019-03-22T09:47:04.094Z,23.90
2019-03-22T09:49:32.442Z,19.40
2019-03-22T09:52:00.745Z,26.17
2019-03-22T09:54:28.957Z,21.37
2019-03-22T09:56:57.290Z,23.90
2019-03-22T09:59:25.586Z,21.67
2019-03-22T10:01:53.881Z,27.17
2019-03-22T10:04:22.082Z,22.53
2019-03-22T10:06:50.416Z,21.80
2019-03-22T10:09:18.683Z,20.77
2019-03-22T10:11:46.924Z,18.63
2019-03-22T10:14:15.230Z,27.43
2019-03-22T10:16:43.581Z,24.03
2019-03-22T10:19:11.806Z,20.73
2019-03-22T10:21:40.103Z,23.97
2019-03-22T10:24:08.433Z,21.97
2019-03-22T10:26:36.718Z,22.20
2019-03-22T10:29:06.907Z,21.60
2019-03-22T10:31:37.511Z,23.47
2019-03-22T10:34:04.933Z,22.97
2019-03-22T10:36:33.232Z,20.00
2019-03-22T10:39:01.511Z,20.43
2019-03-22T10:41:29.725Z,20.07
2019-03-22T10:43:58.006Z,20.03
2019-03-22T10:46:26.216Z,22.37
2019-03-22T10:48:54.541Z,21.30
2019-03-22T10:51:22.812Z,19.00
2019-03-22T10:53:51.041Z,18.13
2019-03-22T10:56:19.373Z,24.43
2019-03-22T10:58:47.601Z,19.17
2019-03-22T11:01:15.931Z,18.67
2019-03-22T11:03:44.309Z,17.40
2019-03-22T11:06:13.194Z,20.40
2019-03-22T11:08:41.494Z,17.83
2019-03-22T11:11:09.798Z,18.00
2019-03-22T11:13:38.061Z,15.07
2019-03-22T11:16:06.363Z,18.00
2019-03-22T11:18:37.524Z,17.67
2019-03-22T11:21:05.617Z,20.17
2019-03-22T11:23:36.709Z,17.80
2019-03-22T11:26:05.010Z,17.57
2019-03-22T11:28:33.345Z,18.33
2019-03-22T11:31:05.020Z,18.00
2019-03-22T11:33:31.540Z,17.57
2019-03-22T11:35:59.761Z,16.77
2019-03-22T11:38:28.090Z,16.30
2019-03-22T11:40:56.393Z,17.90
2019-03-22T11:43:25.616Z,17.93
2019-03-22T11:45:54.126Z,20.37
2019-03-22T11:48:22.383Z,18.83
2019-03-22T11:50:50.685Z,17.00
2019-03-22T11:53:18.945Z,17.07
2019-03-22T11:55:47.250Z,20.47
2019-03-22T11:58:15.489Z,18.43
2019-03-22T12:00:43.831Z,18.63
2019-03-22T12:03:12.160Z,18.40
2019-03-22T12:05:40.817Z,17.17
2019-03-22T12:08:09.119Z,17.77
2019-03-22T12:10:37.381Z,18.10
2019-03-22T12:13:05.701Z,16.10
2019-03-22T12:15:33.961Z,18.77
2019-03-22T12:18:02.259Z,19.03
2019-03-22T12:20:30.589Z,20.13
2019-03-22T12:22:58.885Z,17.67
2019-03-22T12:25:27.723Z,19.77
2019-03-22T12:27:56.099Z,19.97
2019-03-22T12:30:24.358Z,19.53
2019-03-22T12:32:52.657Z,16.07
2019-03-22T12:35:20.986Z,17.67
2019-03-22T12:37:49.281Z,17.43
2019-03-22T12:40:20.898Z,17.17
2019-03-22T12:42:49.697Z,17.37
2019-03-22T12:45:22.126Z,16.60
2019-03-22T12:47:50.349Z,17.13
2019-03-22T12:50:18.684Z,16.93
2019-03-22T12:52:46.990Z,20.60
2019-03-22T12:55:15.294Z,17.67
2019-03-22T12:57:43.609Z,14.60
2019-03-22T13:00:13.613Z,14.53
2019-03-22T13:02:42.566Z,17.77
2019-03-22T13:05:11.143Z,15.13
2019-03-22T13:07:39.469Z,14.53
2019-03-22T13:10:08.970Z,18.20
2019-03-22T13:12:37.301Z,16.37
2019-03-22T13:15:05.998Z,15.87
2019-03-22T13:17:34.329Z,16.30
2019-03-22T13:20:02.738Z,17.57
2019-03-22T13:22:31.084Z,13.47
2019-03-22T13:24:59.318Z,13.40
2019-03-22T13:27:27.647Z,15.10
2019-03-22T13:29:55.876Z,13.93
2019-03-22T13:32:24.142Z,13.57
2019-03-22T13:34:52.370Z,19.63
2019-03-22T13:37:20.609Z,13.47
2019-03-22T13:39:48.937Z,17.00
2019-03-22T13:42:17.237Z,15.03
2019-03-22T13:44:45.578Z,18.90
2019-03-22T13:47:13.821Z,14.00
2019-03-22T13:49:42.074Z,14.30
2019-03-22T13:52:10.378Z,13.77
2019-03-22T13:54:38.717Z,15.87
2019-03-22T13:57:06.942Z,17.63
2019-03-22T13:59:35.270Z,12.27
2019-03-22T14:02:03.580Z,15.07
2019-03-22T14:04:31.900Z,14.20
2019-03-22T14:07:00.202Z,16.33
2019-03-22T14:09:28.438Z,16.90
2019-03-22T14:11:56.701Z,13.60
2019-03-22T14:14:25.188Z,14.20
2019-03-22T14:16:54.084Z,12.60
2019-03-22T14:19:22.507Z,15.77
2019-03-22T14:21:50.829Z,15.93
2019-03-22T14:24:19.065Z,13.00
2019-03-22T14:26:47.406Z,15.93
2019-03-22T14:29:15.710Z,13.50
2019-03-22T14:31:44.962Z,13.43
2019-03-22T14:34:13.333Z,13.00
2019-03-22T14:36:43.146Z,12.83
2019-03-22T14:39:11.569Z,13.13
2019-03-22T14:41:39.834Z,14.17
2019-03-22T14:44:08.049Z,13.93
2019-03-22T14:46:36.317Z,14.00
2019-03-22T14:49:04.635Z,15.00
2019-03-22T14:51:32.864Z,12.13
2019-03-22T14:54:01.211Z,14.70
2019-03-22T14:56:31.244Z,12.27
2019-03-22T14:58:59.586Z,14.10
2019-03-22T15:01:27.885Z,13.83
2019-03-22T15:03:56.231Z,12.53
2019-03-22T15:06:27.530Z,13.10
2019-03-22T15:08:56.815Z,11.27
2019-03-22T15:11:25.196Z,12.07
2019-03-22T15:13:58.095Z,11.77
2019-03-22T15:16:28.034Z,12.00
2019-03-22T15:19:04.335Z,8.50
2019-03-22T15:21:49.053Z,11.73
2019-03-22T15:24:33.820Z,9.53
2019-03-22T15:27:09.714Z,11.13
2019-03-22T15:29:56.349Z,12.00
2019-03-22T15:32:32.303Z,10.10
2019-03-22T15:35:20.572Z,12.70
2019-03-22T15:38:08.650Z,10.27
2019-03-22T15:40:37.087Z,10.80
2019-03-22T15:43:05.394Z,11.80
2019-03-22T15:45:33.722Z,10.27
2019-03-22T15:48:01.964Z,11.03
2019-03-22T15:50:30.280Z,11.47
2019-03-22T15:52:58.622Z,10.17
2019-03-22T15:55:26.921Z,10.23
2019-03-22T15:57:55.266Z,10.37
2019-03-22T16:00:23.793Z,10.80
2019-03-22T16:02:53.312Z,12.20
2019-03-22T16:05:21.606Z,13.97
2019-03-22T16:07:49.931Z,13.53
2019-03-22T16:10:18.265Z,13.60
2019-03-22T16:12:46.695Z,13.73
2019-03-22T16:15:14.976Z,12.70
2019-03-22T16:17:43.309Z,14.77
2019-03-22T16:20:12.713Z,11.67
2019-03-22T16:22:41.044Z,11.10
2019-03-22T16:25:10.146Z,15.20
2019-03-22T16:27:38.600Z,12.57
2019-03-22T16:30:09.878Z,13.07
2019-03-22T16:32:38.089Z,15.17
2019-03-22T16:35:07.110Z,15.03
2019-03-22T16:37:35.405Z,13.20
2019-03-22T16:40:04.804Z,14.50
2019-03-22T16:42:33.020Z,15.03
2019-03-22T16:45:01.407Z,18.93
2019-03-22T16:47:29.781Z,18.93
2019-03-22T16:49:58.280Z,17.40
2019-03-22T16:52:26.508Z,25.00
2019-03-22T16:54:55.080Z,20.03
2019-03-22T16:57:23.340Z,19.10
2019-03-22T16:59:51.745Z,16.83
2019-03-22T17:02:20.548Z,17.30
2019-03-22T17:04:49.101Z,14.13
2019-03-22T17:07:17.941Z,13.73
2019-03-22T17:09:46.281Z,16.37
2019-03-22T17:12:15.525Z,13.20
2019-03-22T17:14:43.866Z,11.33
2019-03-22T17:17:12.203Z,13.27
2019-03-22T17:19:40.800Z,15.10
2019-03-22T17:22:10.032Z,12.97
2019-03-22T17:24:39.162Z,14.27
2019-03-22T17:27:07.529Z,14.90
2019-03-22T17:29:36.260Z,17.43
2019-03-22T17:32:04.646Z,12.00
2019-03-22T17:34:32.922Z,12.40
2019-03-22T17:37:01.216Z,11.47
2019-03-22T17:39:29.806Z,14.87
2019-03-22T17:41:58.503Z,13.87
2019-03-22T17:44:26.728Z,14.43
2019-03-22T17:46:55.045Z,13.50
2019-03-22T17:49:23.927Z,16.37
2019-03-22T17:51:52.208Z,15.07
2019-03-22T17:54:20.634Z,15.07
2019-03-22T17:56:49.371Z,13.57
2019-03-22T17:59:17.982Z,19.03
2019-03-22T18:01:46.991Z,17.27
2019-03-22T18:04:23.904Z,18.27
2019-03-22T18:06:45.168Z,13.90
2019-03-22T18:09:13.738Z,13.90
2019-03-22T18:11:41.970Z,15.97
2019-03-22T18:14:10.286Z,17.17
2019-03-22T18:16:38.625Z,14.27
2019-03-22T18:19:06.945Z,16.80
2019-03-22T18:21:35.273Z,17.07
2019-03-22T18:24:04.121Z,15.17
2019-03-22T18:26:34.070Z,16.00
2019-03-22T18:29:02.445Z,16.50
2019-03-22T18:31:30.749Z,14.97
2019-03-22T18:33:59.100Z,16.13
2019-03-22T18:36:27.990Z,19.20
2019-03-22T18:38:56.291Z,18.40
2019-03-22T18:41:24.517Z,18.23
2019-03-22T18:43:52.772Z,21.03
2019-03-22T18:46:21.005Z,20.23
2019-03-22T18:48:49.256Z,16.33
2019-03-22T18:51:17.574Z,16.40
2019-03-22T18:53:45.846Z,19.50
2019-03-22T18:56:14.082Z,15.47
2019-03-22T18:58:42.342Z,19.17
2019-03-22T19:01:10.654Z,21.43
2019-03-22T19:03:39.028Z,19.77
2019-03-22T19:06:07.337Z,21.53
2019-03-22T19:08:35.599Z,18.97
2019-03-22T19:11:03.938Z,17.40
2019-03-22T19:13:32.602Z,21.03
2019-03-22T19:16:00.830Z,19.27
2019-03-22T19:18:29.099Z,20.47
2019-03-22T19:20:57.420Z,21.37
2019-03-22T19:23:25.718Z,21.03
2019-03-22T19:25:54.060Z,16.93
2019-03-22T19:28:22.910Z,16.23
2019-03-22T19:30:51.572Z,16.33
2019-03-22T19:33:19.894Z,15.40
2019-03-22T19:35:48.223Z,17.30
2019-03-22T19:38:16.947Z,17.27
2019-03-22T19:40:45.318Z,15.17
2019-03-22T19:43:13.533Z,15.20
2019-03-22T19:45:42.320Z,18.03
2019-03-22T19:48:10.746Z,19.70
2019-03-22T19:50:39.978Z,15.87
2019-03-22T19:53:08.474Z,18.77
2019-03-22T19:55:36.795Z,22.97
2019-03-22T19:58:05.022Z,20.10
2019-03-22T20:00:33.276Z,16.70
2019-03-22T20:03:01.694Z,21.07
2019-03-22T20:05:31.467Z,19.33
2019-03-22T20:08:00.246Z,21.77
2019-03-22T20:10:28.575Z,22.43
2019-03-22T20:12:56.886Z,21.30
2019-03-22T20:15:25.127Z,22.90
2019-03-22T20:17:53.958Z,20.10
2019-03-22T20:20:22.481Z,18.47
2019-03-22T20:22:51.109Z,23.00
2019-03-22T20:25:19.417Z,26.40
2019-03-22T20:27:48.074Z,21.57
2019-03-22T20:30:17.497Z,22.57
2019-03-22T20:32:46.454Z,18.77
2019-03-22T20:35:16.837Z,18.40
2019-03-22T20:37:44.909Z,25.73
2019-03-22T20:40:19.217Z,22.83
2019-03-22T20:42:47.708Z,33.30
2019-03-22T20:45:24.208Z,26.87
2019-03-22T20:47:46.595Z,24.83
2019-03-22T20:50:16.282Z,27.83
2019-03-22T20:52:44.945Z,27.83
2019-03-22T20:55:13.429Z,26.27
2019-03-22T20:57:41.788Z,27.30
2019-03-22T21:00:13.719Z,23.50
2019-03-22T21:02:42.063Z,20.53
2019-03-22T21:05:10.679Z,21.90
2019-03-22T21:07:39.086Z,23.33
2019-03-22T21:10:08.275Z,24.80
2019-03-22T21:12:36.787Z,29.23
2019-03-22T21:15:06.688Z,22.13
2019-03-22T21:17:35.008Z,24.87
2019-03-22T21:20:04.436Z,23.33
2019-03-22T21:22:32.811Z,26.50
2019-03-22T21:25:01.242Z,28.57
2019-03-22T21:27:29.552Z,33.37
2019-03-22T21:29:57.865Z,28.23
2019-03-22T21:32:26.166Z,27.43
2019-03-22T21:34:54.527Z,24.73
2019-03-22T21:37:22.825Z,32.97
2019-03-22T21:39:51.142Z,24.03
2019-03-22T21:42:19.556Z,23.87
2019-03-22T21:44:47.801Z,21.83
2019-03-22T21:47:16.148Z,27.53
2019-03-22T21:49:44.471Z,24.27
2019-03-22T21:52:12.814Z,29.47
2019-03-22T21:54:41.050Z,25.43
2019-03-22T21:57:09.326Z,22.20
2019-03-22T21:59:38.428Z,25.40
2019-03-22T22:02:06.770Z,24.07
2019-03-22T22:04:35.146Z,24.30
2019-03-22T22:07:03.484Z,29.50
2019-03-22T22:09:31.812Z,26.93
2019-03-22T22:12:00.151Z,25.80
2019-03-22T22:14:28.464Z,32.67
2019-03-22T22:16:56.846Z,27.57
2019-03-22T22:19:25.280Z,29.40
2019-03-22T22:21:53.518Z,27.60
2019-03-22T22:24:21.984Z,26.80
2019-03-22T22:26:50.317Z,29.03
2019-03-22T22:29:18.574Z,25.33
2019-03-22T22:31:46.881Z,23.03
2019-03-22T22:34:15.153Z,25.67
2019-03-22T22:36:43.574Z,24.03
2019-03-22T22:39:11.898Z,22.40
2019-03-22T22:41:40.135Z,23.53
2019-03-22T22:44:08.399Z,23.13
2019-03-22T22:46:36.701Z,23.33
2019-03-22T22:49:05.034Z,24.63
2019-03-22T22:51:33.270Z,22.80
2019-03-22T22:54:01.607Z,31.77
2019-03-22T22:56:29.829Z,23.90
2019-03-22T22:58:58.127Z,24.33
2019-03-22T23:01:26.498Z,24.73
2019-03-22T23:03:54.804Z,22.63
2019-03-22T23:06:23.145Z,25.77
2019-03-22T23:08:51.444Z,20.03
2019-03-22T23:11:19.782Z,28.40
2019-03-22T23:13:48.094Z,26.33
2019-03-22T23:16:16.443Z,23.30
2019-03-22T23:18:44.745Z,29.97
2019-03-22T23:21:13.085Z,23.70
2019-03-22T23:23:41.322Z,24.33
2019-03-22T23:26:09.600Z,25.27
2019-03-22T23:28:37.899Z,23.50
2019-03-22T23:31:06.245Z,25.07
2019-03-22T23:33:34.544Z,22.43
2019-03-22T23:36:02.888Z,24.17
2019-03-22T23:38:31.199Z,25.17
2019-03-22T23:40:59.449Z,26.03
2019-03-22T23:43:27.689Z,23.90
2019-03-22T23:45:55.961Z,26.00
2019-03-22T23:48:24.265Z,23.20
2019-03-22T23:50:52.533Z,25.40
2019-03-22T23:53:20.764Z,25.93
2019-03-22T23:55:49.001Z,25.10
2019-03-22T23:58:17.341Z,24.27
